sensor_id;sensor_type;location;lat;lon;timestamp;temperature;humidity
573;DHT22;271;51.114;13.780;2023-11-21T00:00:46;7.30;60.30
573;DHT22;271;51.114;13.780;2023-11-21T00:03:34;7.40;62.20
573;DHT22;271;51.114;13.780;2023-11-21T00:06:22;7.40;61.70
573;DHT22;271;51.114;13.780;2023-11-21T00:09:09;7.50;63.40
573;DHT22;271;51.114;13.780;2023-11-21T00:12:00;7.50;63.40
573;DHT22;271;51.114;13.780;2023-11-21T00:14:48;7.60;63.20
573;DHT22;271;51.114;13.780;2023-11-21T00:17:36;7.60;63.70
573;DHT22;271;51.114;13.780;2023-11-21T00:20:24;7.70;64.10
573;DHT22;271;51.114;13.780;2023-11-21T00:23:12;7.80;63.20
573;DHT22;271;51.114;13.780;2023-11-21T00:25:59;7.70;62.10
573;DHT22;271;51.114;13.780;2023-11-21T00:28:48;7.80;60.50
573;DHT22;271;51.114;13.780;2023-11-21T00:31:36;7.80;60.00
573;DHT22;271;51.114;13.780;2023-11-21T00:34:25;7.80;59.80
573;DHT22;271;51.114;13.780;2023-11-21T00:37:12;7.80;58.60
573;DHT22;271;51.114;13.780;2023-11-21T00:40:00;7.80;59.50
573;DHT22;271;51.114;13.780;2023-11-21T00:42:51;7.80;59.70
573;DHT22;271;51.114;13.780;2023-11-21T00:45:40;7.90;57.80
573;DHT22;271;51.114;13.780;2023-11-21T00:48:28;7.90;56.60
573;DHT22;271;51.114;13.780;2023-11-21T00:51:15;7.90;56.30
573;DHT22;271;51.114;13.780;2023-11-21T00:54:03;8.00;55.70
573;DHT22;271;51.114;13.780;2023-11-21T00:56:53;7.90;55.80
573;DHT22;271;51.114;13.780;2023-11-21T00:59:40;8.00;55.30
573;DHT22;271;51.114;13.780;2023-11-21T01:02:29;8.00;53.40
573;DHT22;271;51.114;13.780;2023-11-21T01:05:17;8.00;51.60
573;DHT22;271;51.114;13.780;2023-11-21T01:08:06;8.00;51.50
573;DHT22;271;51.114;13.780;2023-11-21T01:10:53;8.00;51.90
573;DHT22;271;51.114;13.780;2023-11-21T01:13:41;8.00;51.00
573;DHT22;271;51.114;13.780;2023-11-21T01:16:31;8.00;47.80
573;DHT22;271;51.114;13.780;2023-11-21T01:19:20;8.00;44.50
573;DHT22;271;51.114;13.780;2023-11-21T01:22:08;8.00;43.60
573;DHT22;271;51.114;13.780;2023-11-21T01:24:58;8.10;43.40
573;DHT22;271;51.114;13.780;2023-11-21T01:27:45;8.10;42.80
573;DHT22;271;51.114;13.780;2023-11-21T01:30:33;8.10;42.00
573;DHT22;271;51.114;13.780;2023-11-21T01:33:22;8.10;42.10
573;DHT22;271;51.114;13.780;2023-11-21T01:36:12;8.10;42.30
573;DHT22;271;51.114;13.780;2023-11-21T01:39:00;8.20;42.90
573;DHT22;271;51.114;13.780;2023-11-21T01:41:48;8.10;41.60
573;DHT22;271;51.114;13.780;2023-11-21T01:44:35;8.10;42.80
573;DHT22;271;51.114;13.780;2023-11-21T01:47:23;8.10;43.40
573;DHT22;271;51.114;13.780;2023-11-21T01:50:15;8.10;45.20
573;DHT22;271;51.114;13.780;2023-11-21T01:53:05;8.20;42.20
573;DHT22;271;51.114;13.780;2023-11-21T01:55:53;8.10;40.40
573;DHT22;271;51.114;13.780;2023-11-21T01:58:42;8.10;41.50
573;DHT22;271;51.114;13.780;2023-11-21T02:01:30;8.10;42.20
573;DHT22;271;51.114;13.780;2023-11-21T02:04:18;8.20;43.30
573;DHT22;271;51.114;13.780;2023-11-21T02:07:07;8.10;43.00
573;DHT22;271;51.114;13.780;2023-11-21T02:09:56;8.10;42.50
573;DHT22;271;51.114;13.780;2023-11-21T02:12:44;8.10;42.40
573;DHT22;271;51.114;13.780;2023-11-21T02:15:32;8.30;43.50
573;DHT22;271;51.114;13.780;2023-11-21T02:18:19;8.20;43.10
573;DHT22;271;51.114;13.780;2023-11-21T02:21:08;8.10;43.50
573;DHT22;271;51.114;13.780;2023-11-21T02:23:57;8.10;45.80
573;DHT22;271;51.114;13.780;2023-11-21T02:26:45;8.10;44.60
573;DHT22;271;51.114;13.780;2023-11-21T02:29:33;8.20;45.50
573;DHT22;271;51.114;13.780;2023-11-21T02:32:21;8.20;39.90
573;DHT22;271;51.114;13.780;2023-11-21T02:35:09;8.30;38.30
573;DHT22;271;51.114;13.780;2023-11-21T02:37:58;8.10;37.70
573;DHT22;271;51.114;13.780;2023-11-21T02:40:47;8.10;36.70
573;DHT22;271;51.114;13.780;2023-11-21T02:43:35;8.10;37.90
573;DHT22;271;51.114;13.780;2023-11-21T02:46:24;8.10;37.60
573;DHT22;271;51.114;13.780;2023-11-21T02:49:12;8.00;35.10
573;DHT22;271;51.114;13.780;2023-11-21T02:52:00;8.00;34.40
573;DHT22;271;51.114;13.780;2023-11-21T02:54:48;8.00;34.20
573;DHT22;271;51.114;13.780;2023-11-21T02:57:37;7.90;33.80
573;DHT22;271;51.114;13.780;2023-11-21T03:00:25;7.80;33.80
573;DHT22;271;51.114;13.780;2023-11-21T03:03:13;7.80;35.80
573;DHT22;271;51.114;13.780;2023-11-21T03:06:00;7.80;37.90
573;DHT22;271;51.114;13.780;2023-11-21T03:08:49;7.80;38.10
573;DHT22;271;51.114;13.780;2023-11-21T03:11:37;7.80;38.10
573;DHT22;271;51.114;13.780;2023-11-21T03:14:26;7.70;38.00
573;DHT22;271;51.114;13.780;2023-11-21T03:17:13;7.70;36.80
573;DHT22;271;51.114;13.780;2023-11-21T03:20:02;7.70;38.20
573;DHT22;271;51.114;13.780;2023-11-21T03:22:50;7.60;38.00
573;DHT22;271;51.114;13.780;2023-11-21T03:25:38;7.60;38.60
573;DHT22;271;51.114;13.780;2023-11-21T03:28:25;7.60;38.70
573;DHT22;271;51.114;13.780;2023-11-21T03:31:15;7.60;39.50
573;DHT22;271;51.114;13.780;2023-11-21T03:34:05;7.60;40.00
573;DHT22;271;51.114;13.780;2023-11-21T03:36:52;7.60;39.20
573;DHT22;271;51.114;13.780;2023-11-21T03:39:40;7.60;38.50
573;DHT22;271;51.114;13.780;2023-11-21T03:42:28;7.50;38.70
573;DHT22;271;51.114;13.780;2023-11-21T03:45:15;7.50;38.20
573;DHT22;271;51.114;13.780;2023-11-21T03:48:05;7.50;38.20
573;DHT22;271;51.114;13.780;2023-11-21T03:50:52;7.50;41.30
573;DHT22;271;51.114;13.780;2023-11-21T03:53:40;7.50;41.90
573;DHT22;271;51.114;13.780;2023-11-21T03:56:28;7.60;42.00
573;DHT22;271;51.114;13.780;2023-11-21T03:59:16;7.60;37.80
573;DHT22;271;51.114;13.780;2023-11-21T04:02:05;7.60;35.70
573;DHT22;271;51.114;13.780;2023-11-21T04:04:55;7.60;33.90
573;DHT22;271;51.114;13.780;2023-11-21T04:07:43;7.50;35.20
573;DHT22;271;51.114;13.780;2023-11-21T04:10:30;7.60;36.00
573;DHT22;271;51.114;13.780;2023-11-21T04:13:18;7.50;38.00
573;DHT22;271;51.114;13.780;2023-11-21T04:16:06;7.60;37.20
573;DHT22;271;51.114;13.780;2023-11-21T04:18:54;7.60;33.90
573;DHT22;271;51.114;13.780;2023-11-21T04:21:43;7.70;33.90
573;DHT22;271;51.114;13.780;2023-11-21T04:24:30;7.50;33.90
573;DHT22;271;51.114;13.780;2023-11-21T04:27:18;7.50;34.50
573;DHT22;271;51.114;13.780;2023-11-21T04:30:07;7.50;37.70
573;DHT22;271;51.114;13.780;2023-11-21T04:32:56;7.50;37.60
573;DHT22;271;51.114;13.780;2023-11-21T04:35:43;7.60;38.40
573;DHT22;271;51.114;13.780;2023-11-21T04:38:32;7.60;38.20
573;DHT22;271;51.114;13.780;2023-11-21T04:41:20;7.60;38.20
573;DHT22;271;51.114;13.780;2023-11-21T04:44:08;7.60;37.90
573;DHT22;271;51.114;13.780;2023-11-21T04:46:56;7.60;37.90
573;DHT22;271;51.114;13.780;2023-11-21T04:49:44;7.60;38.40
573;DHT22;271;51.114;13.780;2023-11-21T04:52:34;7.60;39.30
573;DHT22;271;51.114;13.780;2023-11-21T04:55:23;7.60;39.60
573;DHT22;271;51.114;13.780;2023-11-21T04:58:14;7.60;41.10
573;DHT22;271;51.114;13.780;2023-11-21T05:01:02;7.60;40.60
573;DHT22;271;51.114;13.780;2023-11-21T05:03:49;7.70;40.20
573;DHT22;271;51.114;13.780;2023-11-21T05:06:38;7.70;38.30
573;DHT22;271;51.114;13.780;2023-11-21T05:09:26;7.70;38.00
573;DHT22;271;51.114;13.780;2023-11-21T05:12:19;7.70;38.10
573;DHT22;271;51.114;13.780;2023-11-21T05:15:08;7.60;36.90
573;DHT22;271;51.114;13.780;2023-11-21T05:17:57;7.70;36.30
573;DHT22;271;51.114;13.780;2023-11-21T05:20:46;7.60;35.90
573;DHT22;271;51.114;13.780;2023-11-21T05:23:34;7.70;33.70
573;DHT22;271;51.114;13.780;2023-11-21T05:26:21;7.70;32.40
573;DHT22;271;51.114;13.780;2023-11-21T05:29:10;7.70;30.80
573;DHT22;271;51.114;13.780;2023-11-21T05:31:58;7.70;33.70
573;DHT22;271;51.114;13.780;2023-11-21T05:34:46;7.60;33.90
573;DHT22;271;51.114;13.780;2023-11-21T05:37:33;7.70;34.80
573;DHT22;271;51.114;13.780;2023-11-21T05:40:22;7.70;34.00
573;DHT22;271;51.114;13.780;2023-11-21T05:43:09;7.70;34.10
573;DHT22;271;51.114;13.780;2023-11-21T05:45:59;7.80;34.20
573;DHT22;271;51.114;13.780;2023-11-21T05:48:47;7.70;34.30
573;DHT22;271;51.114;13.780;2023-11-21T05:51:35;7.80;33.10
573;DHT22;271;51.114;13.780;2023-11-21T05:54:22;7.80;31.30
573;DHT22;271;51.114;13.780;2023-11-21T05:57:10;7.80;31.10
573;DHT22;271;51.114;13.780;2023-11-21T05:59:58;7.80;33.20
573;DHT22;271;51.114;13.780;2023-11-21T06:02:47;7.80;32.80
573;DHT22;271;51.114;13.780;2023-11-21T06:05:36;7.70;31.80
573;DHT22;271;51.114;13.780;2023-11-21T06:08:25;7.70;33.30
573;DHT22;271;51.114;13.780;2023-11-21T06:11:13;7.70;33.20
573;DHT22;271;51.114;13.780;2023-11-21T06:14:00;7.60;32.90
573;DHT22;271;51.114;13.780;2023-11-21T06:16:48;7.70;35.00
573;DHT22;271;51.114;13.780;2023-11-21T06:19:38;7.60;35.70
573;DHT22;271;51.114;13.780;2023-11-21T06:22:26;7.70;33.70
573;DHT22;271;51.114;13.780;2023-11-21T06:25:14;7.80;32.60
573;DHT22;271;51.114;13.780;2023-11-21T06:28:02;7.60;33.50
573;DHT22;271;51.114;13.780;2023-11-21T06:30:50;7.70;35.80
573;DHT22;271;51.114;13.780;2023-11-21T06:33:39;7.80;34.70
573;DHT22;271;51.114;13.780;2023-11-21T06:36:28;7.80;35.10
573;DHT22;271;51.114;13.780;2023-11-21T06:39:17;7.80;34.10
573;DHT22;271;51.114;13.780;2023-11-21T06:42:05;7.90;34.10
573;DHT22;271;51.114;13.780;2023-11-21T06:44:53;7.80;33.00
573;DHT22;271;51.114;13.780;2023-11-21T06:47:43;7.80;33.90
573;DHT22;271;51.114;13.780;2023-11-21T06:50:31;7.80;31.90
573;DHT22;271;51.114;13.780;2023-11-21T06:53:20;7.80;30.50
573;DHT22;271;51.114;13.780;2023-11-21T06:56:15;7.80;30.90
573;DHT22;271;51.114;13.780;2023-11-21T06:59:03;7.80;32.20
573;DHT22;271;51.114;13.780;2023-11-21T07:01:52;7.90;30.80
573;DHT22;271;51.114;13.780;2023-11-21T07:04:39;7.90;29.50
573;DHT22;271;51.114;13.780;2023-11-21T07:07:27;7.90;26.40
573;DHT22;271;51.114;13.780;2023-11-21T07:10:16;7.80;25.60
573;DHT22;271;51.114;13.780;2023-11-21T07:13:04;7.80;27.50
573;DHT22;271;51.114;13.780;2023-11-21T07:15:53;7.80;29.00
573;DHT22;271;51.114;13.780;2023-11-21T07:18:41;7.80;29.50
573;DHT22;271;51.114;13.780;2023-11-21T07:21:29;7.90;29.60
573;DHT22;271;51.114;13.780;2023-11-21T07:24:17;7.90;28.60
573;DHT22;271;51.114;13.780;2023-11-21T07:27:06;7.90;27.80
573;DHT22;271;51.114;13.780;2023-11-21T07:29:54;7.90;25.80
573;DHT22;271;51.114;13.780;2023-11-21T07:32:42;7.90;24.10
573;DHT22;271;51.114;13.780;2023-11-21T07:35:31;7.90;25.60
573;DHT22;271;51.114;13.780;2023-11-21T07:38:19;7.90;25.10
573;DHT22;271;51.114;13.780;2023-11-21T07:41:06;8.00;24.70
573;DHT22;271;51.114;13.780;2023-11-21T07:43:56;8.00;23.30
573;DHT22;271;51.114;13.780;2023-11-21T07:46:44;8.00;23.60
573;DHT22;271;51.114;13.780;2023-11-21T07:49:32;8.10;22.70
573;DHT22;271;51.114;13.780;2023-11-21T07:52:19;8.10;22.80
573;DHT22;271;51.114;13.780;2023-11-21T07:55:07;8.10;21.70
573;DHT22;271;51.114;13.780;2023-11-21T07:57:55;8.10;23.50
573;DHT22;271;51.114;13.780;2023-11-21T08:00:44;8.10;21.30
573;DHT22;271;51.114;13.780;2023-11-21T08:03:32;8.10;24.80
573;DHT22;271;51.114;13.780;2023-11-21T08:06:19;8.10;22.80
573;DHT22;271;51.114;13.780;2023-11-21T08:09:07;8.10;24.10
573;DHT22;271;51.114;13.780;2023-11-21T08:11:55;8.20;23.00
573;DHT22;271;51.114;13.780;2023-11-21T08:14:43;8.20;18.80
573;DHT22;271;51.114;13.780;2023-11-21T08:17:33;8.20;21.40
573;DHT22;271;51.114;13.780;2023-11-21T08:20:22;8.20;21.60
573;DHT22;271;51.114;13.780;2023-11-21T08:23:11;8.20;21.30
573;DHT22;271;51.114;13.780;2023-11-21T08:25:58;8.10;21.90
573;DHT22;271;51.114;13.780;2023-11-21T08:28:46;8.10;26.20
573;DHT22;271;51.114;13.780;2023-11-21T08:31:34;8.10;25.60
573;DHT22;271;51.114;13.780;2023-11-21T08:34:24;8.00;25.60
573;DHT22;271;51.114;13.780;2023-11-21T08:37:11;8.00;28.40
573;DHT22;271;51.114;13.780;2023-11-21T08:40:02;8.00;30.50
573;DHT22;271;51.114;13.780;2023-11-21T08:42:50;8.10;31.90
573;DHT22;271;51.114;13.780;2023-11-21T08:45:38;8.10;30.50
573;DHT22;271;51.114;13.780;2023-11-21T08:48:26;8.00;32.00
573;DHT22;271;51.114;13.780;2023-11-21T08:51:17;7.90;33.80
573;DHT22;271;51.114;13.780;2023-11-21T08:54:05;7.90;36.30
573;DHT22;271;51.114;13.780;2023-11-21T08:56:54;7.90;38.00
573;DHT22;271;51.114;13.780;2023-11-21T08:59:44;7.70;41.80
573;DHT22;271;51.114;13.780;2023-11-21T09:02:32;7.90;43.20
573;DHT22;271;51.114;13.780;2023-11-21T09:05:20;7.90;43.80
573;DHT22;271;51.114;13.780;2023-11-21T09:08:09;7.90;46.50
573;DHT22;271;51.114;13.780;2023-11-21T09:10:56;7.90;44.00
573;DHT22;271;51.114;13.780;2023-11-21T09:13:44;7.90;46.90
573;DHT22;271;51.114;13.780;2023-11-21T09:16:33;7.90;45.40
573;DHT22;271;51.114;13.780;2023-11-21T09:19:21;7.90;46.70
573;DHT22;271;51.114;13.780;2023-11-21T09:22:09;7.90;47.80
573;DHT22;271;51.114;13.780;2023-11-21T09:24:58;7.80;48.80
573;DHT22;271;51.114;13.780;2023-11-21T09:27:45;7.90;49.40
573;DHT22;271;51.114;13.780;2023-11-21T09:30:33;7.80;46.50
573;DHT22;271;51.114;13.780;2023-11-21T09:33:21;7.80;46.10
573;DHT22;271;51.114;13.780;2023-11-21T09:36:12;7.80;44.70
573;DHT22;271;51.114;13.780;2023-11-21T09:39:01;7.70;40.40
573;DHT22;271;51.114;13.780;2023-11-21T09:41:57;7.70;41.90
573;DHT22;271;51.114;13.780;2023-11-21T09:44:53;7.60;41.20
573;DHT22;271;51.114;13.780;2023-11-21T09:47:42;7.30;33.30
573;DHT22;271;51.114;13.780;2023-11-21T09:50:30;7.30;36.10
573;DHT22;271;51.114;13.780;2023-11-21T09:53:20;7.30;37.30
573;DHT22;271;51.114;13.780;2023-11-21T09:56:10;7.20;33.60
573;DHT22;271;51.114;13.780;2023-11-21T09:58:59;7.10;35.30
573;DHT22;271;51.114;13.780;2023-11-21T10:01:52;7.00;34.10
573;DHT22;271;51.114;13.780;2023-11-21T10:04:40;6.80;33.20
573;DHT22;271;51.114;13.780;2023-11-21T10:07:28;6.80;34.80
573;DHT22;271;51.114;13.780;2023-11-21T10:10:19;6.80;36.00
573;DHT22;271;51.114;13.780;2023-11-21T10:13:10;6.80;37.00
573;DHT22;271;51.114;13.780;2023-11-21T10:16:00;6.70;38.40
573;DHT22;271;51.114;13.780;2023-11-21T10:18:52;6.60;36.80
573;DHT22;271;51.114;13.780;2023-11-21T10:21:41;6.60;33.30
573;DHT22;271;51.114;13.780;2023-11-21T10:24:29;6.60;30.60
573;DHT22;271;51.114;13.780;2023-11-21T10:27:17;6.60;27.80
573;DHT22;271;51.114;13.780;2023-11-21T10:30:07;6.60;22.70
573;DHT22;271;51.114;13.780;2023-11-21T10:33:00;6.50;17.50
573;DHT22;271;51.114;13.780;2023-11-21T10:35:49;6.50;17.30
573;DHT22;271;51.114;13.780;2023-11-21T10:38:42;6.40;18.50
573;DHT22;271;51.114;13.780;2023-11-21T10:41:32;6.40;18.60
573;DHT22;271;51.114;13.780;2023-11-21T10:44:21;6.40;18.10
573;DHT22;271;51.114;13.780;2023-11-21T10:47:10;6.40;18.10
573;DHT22;271;51.114;13.780;2023-11-21T10:50:00;6.40;20.30
573;DHT22;271;51.114;13.780;2023-11-21T10:52:48;6.40;22.40
573;DHT22;271;51.114;13.780;2023-11-21T10:55:36;6.50;24.50
573;DHT22;271;51.114;13.780;2023-11-21T10:58:23;6.50;24.30
573;DHT22;271;51.114;13.780;2023-11-21T11:01:12;6.40;23.10
573;DHT22;271;51.114;13.780;2023-11-21T11:04:02;6.40;19.30
573;DHT22;271;51.114;13.780;2023-11-21T11:06:56;6.30;13.90
573;DHT22;271;51.114;13.780;2023-11-21T11:09:44;6.40;13.80
573;DHT22;271;51.114;13.780;2023-11-21T11:12:33;6.50;11.70
573;DHT22;271;51.114;13.780;2023-11-21T11:15:23;6.40;10.50
573;DHT22;271;51.114;13.780;2023-11-21T11:18:12;6.40;9.20
573;DHT22;271;51.114;13.780;2023-11-21T11:21:07;6.30;7.30
573;DHT22;271;51.114;13.780;2023-11-21T11:24:24;6.30;5.10
573;DHT22;271;51.114;13.780;2023-11-21T11:27:21;6.30;6.70
573;DHT22;271;51.114;13.780;2023-11-21T11:30:19;6.30;2.30
573;DHT22;271;51.114;13.780;2023-11-21T11:33:21;6.10;2.90
573;DHT22;271;51.114;13.780;2023-11-21T11:36:17;6.10;4.20
573;DHT22;271;51.114;13.780;2023-11-21T11:39:31;6.10;6.40
573;DHT22;271;51.114;13.780;2023-11-21T11:42:22;6.00;6.60
573;DHT22;271;51.114;13.780;2023-11-21T11:45:18;6.00;9.90
573;DHT22;271;51.114;13.780;2023-11-21T11:48:06;6.10;11.30
573;DHT22;271;51.114;13.780;2023-11-21T11:51:05;6.10;13.30
573;DHT22;271;51.114;13.780;2023-11-21T11:53:55;6.10;10.20
573;DHT22;271;51.114;13.780;2023-11-21T11:56:44;6.10;7.10
573;DHT22;271;51.114;13.780;2023-11-21T12:00:07;6.00;4.50
573;DHT22;271;51.114;13.780;2023-11-21T12:02:58;5.90;2.90
573;DHT22;271;51.114;13.780;2023-11-21T12:05:49;5.90;4.60
573;DHT22;271;51.114;13.780;2023-11-21T12:08:39;5.90;3.30
573;DHT22;271;51.114;13.780;2023-11-21T12:11:30;5.90;5.90
573;DHT22;271;51.114;13.780;2023-11-21T12:14:20;5.90;6.30
573;DHT22;271;51.114;13.780;2023-11-21T12:17:08;5.90;6.70
573;DHT22;271;51.114;13.780;2023-11-21T12:20:02;6.00;6.60
573;DHT22;271;51.114;13.780;2023-11-21T12:22:51;6.00;5.40
573;DHT22;271;51.114;13.780;2023-11-21T12:25:39;5.90;6.80
573;DHT22;271;51.114;13.780;2023-11-21T12:28:27;5.80;6.10
573;DHT22;271;51.114;13.780;2023-11-21T12:31:17;5.80;10.10
573;DHT22;271;51.114;13.780;2023-11-21T12:34:05;5.90;12.70
573;DHT22;271;51.114;13.780;2023-11-21T12:36:53;5.80;10.20
573;DHT22;271;51.114;13.780;2023-11-21T12:39:41;5.90;13.60
573;DHT22;271;51.114;13.780;2023-11-21T12:42:28;5.80;13.40
573;DHT22;271;51.114;13.780;2023-11-21T12:45:21;5.70;13.70
573;DHT22;271;51.114;13.780;2023-11-21T12:48:10;5.70;12.00
573;DHT22;271;51.114;13.780;2023-11-21T12:50:58;5.60;12.80
573;DHT22;271;51.114;13.780;2023-11-21T12:53:46;5.60;15.80
573;DHT22;271;51.114;13.780;2023-11-21T12:56:38;5.60;14.50
573;DHT22;271;51.114;13.780;2023-11-21T12:59:25;5.60;15.00
573;DHT22;271;51.114;13.780;2023-11-21T13:02:13;5.60;12.10
573;DHT22;271;51.114;13.780;2023-11-21T13:05:03;5.60;10.20
573;DHT22;271;51.114;13.780;2023-11-21T13:08:00;5.50;11.40
573;DHT22;271;51.114;13.780;2023-11-21T13:10:51;5.50;11.50
573;DHT22;271;51.114;13.780;2023-11-21T13:13:41;5.40;13.40
573;DHT22;271;51.114;13.780;2023-11-21T13:16:30;5.40;12.90
573;DHT22;271;51.114;13.780;2023-11-21T13:19:18;5.30;14.60
573;DHT22;271;51.114;13.780;2023-11-21T13:22:09;5.40;16.60
573;DHT22;271;51.114;13.780;2023-11-21T13:24:57;5.20;19.00
573;DHT22;271;51.114;13.780;2023-11-21T13:27:45;5.30;20.50
573;DHT22;271;51.114;13.780;2023-11-21T13:30:33;5.30;18.70
573;DHT22;271;51.114;13.780;2023-11-21T13:33:21;5.20;17.90
573;DHT22;271;51.114;13.780;2023-11-21T13:36:14;5.10;16.70
573;DHT22;271;51.114;13.780;2023-11-21T13:39:10;5.20;18.40
573;DHT22;271;51.114;13.780;2023-11-21T13:42:02;5.10;13.30
573;DHT22;271;51.114;13.780;2023-11-21T13:44:56;5.10;13.80
573;DHT22;271;51.114;13.780;2023-11-21T13:47:44;5.10;11.30
573;DHT22;271;51.114;13.780;2023-11-21T13:50:31;5.10;11.80
573;DHT22;271;51.114;13.780;2023-11-21T13:53:20;5.00;8.40
573;DHT22;271;51.114;13.780;2023-11-21T13:56:10;5.00;7.50
573;DHT22;271;51.114;13.780;2023-11-21T13:58:59;5.00;9.40
573;DHT22;271;51.114;13.780;2023-11-21T14:01:56;5.00;8.90
573;DHT22;271;51.114;13.780;2023-11-21T14:04:46;5.00;10.00
573;DHT22;271;51.114;13.780;2023-11-21T14:07:42;5.00;9.80
573;DHT22;271;51.114;13.780;2023-11-21T14:10:34;4.90;9.70
573;DHT22;271;51.114;13.780;2023-11-21T14:13:30;5.00;7.20
573;DHT22;271;51.114;13.780;2023-11-21T14:16:18;4.80;10.70
573;DHT22;271;51.114;13.780;2023-11-21T14:19:08;4.80;6.10
573;DHT22;271;51.114;13.780;2023-11-21T14:22:02;4.70;7.40
573;DHT22;271;51.114;13.780;2023-11-21T14:24:53;4.70;8.90
573;DHT22;271;51.114;13.780;2023-11-21T14:28:06;4.70;8.60
573;DHT22;271;51.114;13.780;2023-11-21T14:31:02;4.70;10.70
573;DHT22;271;51.114;13.780;2023-11-21T14:34:08;4.70;7.40
573;DHT22;271;51.114;13.780;2023-11-21T14:37:04;4.60;5.90
573;DHT22;271;51.114;13.780;2023-11-21T14:39:55;4.60;7.10
573;DHT22;271;51.114;13.780;2023-11-21T14:42:44;4.50;2.20
573;DHT22;271;51.114;13.780;2023-11-21T14:45:34;4.40;1.00
573;DHT22;271;51.114;13.780;2023-11-21T14:48:25;4.30;1.00
573;DHT22;271;51.114;13.780;2023-11-21T14:51:31;4.30;1.90
573;DHT22;271;51.114;13.780;2023-11-21T14:54:42;4.30;2.30
573;DHT22;271;51.114;13.780;2023-11-21T14:57:32;4.20;2.50
573;DHT22;271;51.114;13.780;2023-11-21T15:00:22;4.30;5.70
573;DHT22;271;51.114;13.780;2023-11-21T15:03:31;4.40;6.60
573;DHT22;271;51.114;13.780;2023-11-21T15:06:30;4.30;6.00
573;DHT22;271;51.114;13.780;2023-11-21T15:09:17;4.30;6.20
573;DHT22;271;51.114;13.780;2023-11-21T15:12:21;4.30;7.00
573;DHT22;271;51.114;13.780;2023-11-21T15:15:12;4.20;7.80
573;DHT22;271;51.114;13.780;2023-11-21T15:18:00;4.20;8.40
573;DHT22;271;51.114;13.780;2023-11-21T15:20:49;4.20;9.50
573;DHT22;271;51.114;13.780;2023-11-21T15:23:37;4.30;5.30
573;DHT22;271;51.114;13.780;2023-11-21T15:26:28;4.20;6.00
573;DHT22;271;51.114;13.780;2023-11-21T15:29:17;4.20;7.10
573;DHT22;271;51.114;13.780;2023-11-21T15:32:07;4.10;7.40
573;DHT22;271;51.114;13.780;2023-11-21T15:34:55;4.20;8.70
573;DHT22;271;51.114;13.780;2023-11-21T15:37:44;4.20;8.90
573;DHT22;271;51.114;13.780;2023-11-21T15:40:32;4.20;8.30
573;DHT22;271;51.114;13.780;2023-11-21T15:43:20;4.30;9.30
573;DHT22;271;51.114;13.780;2023-11-21T15:46:07;4.30;9.60
573;DHT22;271;51.114;13.780;2023-11-21T15:48:55;4.20;10.40
573;DHT22;271;51.114;13.780;2023-11-21T15:51:43;4.20;11.10
573;DHT22;271;51.114;13.780;2023-11-21T15:54:34;4.20;12.00
573;DHT22;271;51.114;13.780;2023-11-21T15:57:22;4.20;12.00
573;DHT22;271;51.114;13.780;2023-11-21T16:00:11;4.20;12.70
573;DHT22;271;51.114;13.780;2023-11-21T16:03:03;4.20;12.90
573;DHT22;271;51.114;13.780;2023-11-21T16:05:50;4.20;14.10
573;DHT22;271;51.114;13.780;2023-11-21T16:08:38;4.20;12.90
573;DHT22;271;51.114;13.780;2023-11-21T16:11:28;4.20;14.30
573;DHT22;271;51.114;13.780;2023-11-21T16:14:16;4.20;17.10
573;DHT22;271;51.114;13.780;2023-11-21T16:17:06;4.20;15.50
573;DHT22;271;51.114;13.780;2023-11-21T16:19:54;4.20;16.40
573;DHT22;271;51.114;13.780;2023-11-21T16:22:42;4.10;17.70
573;DHT22;271;51.114;13.780;2023-11-21T16:25:31;4.10;20.00
573;DHT22;271;51.114;13.780;2023-11-21T16:28:21;4.10;20.90
573;DHT22;271;51.114;13.780;2023-11-21T16:31:08;4.10;19.40
573;DHT22;271;51.114;13.780;2023-11-21T16:33:57;4.10;20.20
573;DHT22;271;51.114;13.780;2023-11-21T16:36:45;4.10;22.50
573;DHT22;271;51.114;13.780;2023-11-21T16:39:33;4.00;14.50
573;DHT22;271;51.114;13.780;2023-11-21T16:42:22;3.90;9.10
573;DHT22;271;51.114;13.780;2023-11-21T16:45:11;3.70;4.60
573;DHT22;271;51.114;13.780;2023-11-21T16:47:59;3.70;5.50
573;DHT22;271;51.114;13.780;2023-11-21T16:50:49;3.70;5.70
573;DHT22;271;51.114;13.780;2023-11-21T16:53:37;3.60;6.80
573;DHT22;271;51.114;13.780;2023-11-21T16:56:26;3.60;11.40
573;DHT22;271;51.114;13.780;2023-11-21T16:59:14;3.60;10.40
573;DHT22;271;51.114;13.780;2023-11-21T17:02:04;3.60;10.40
573;DHT22;271;51.114;13.780;2023-11-21T17:04:51;3.60;12.50
573;DHT22;271;51.114;13.780;2023-11-21T17:07:39;3.60;11.10
573;DHT22;271;51.114;13.780;2023-11-21T17:10:27;3.60;9.60
573;DHT22;271;51.114;13.780;2023-11-21T17:13:15;3.60;11.10
573;DHT22;271;51.114;13.780;2023-11-21T17:16:03;3.60;12.20
573;DHT22;271;51.114;13.780;2023-11-21T17:18:52;3.60;11.00
573;DHT22;271;51.114;13.780;2023-11-21T17:21:40;3.50;12.50
573;DHT22;271;51.114;13.780;2023-11-21T17:24:28;3.60;11.60
573;DHT22;271;51.114;13.780;2023-11-21T17:27:16;3.60;10.00
573;DHT22;271;51.114;13.780;2023-11-21T17:30:05;3.50;10.90
573;DHT22;271;51.114;13.780;2023-11-21T17:32:53;3.60;10.30
573;DHT22;271;51.114;13.780;2023-11-21T17:35:42;3.60;11.80
573;DHT22;271;51.114;13.780;2023-11-21T17:38:30;3.80;12.80
573;DHT22;271;51.114;13.780;2023-11-21T17:41:19;3.60;10.90
573;DHT22;271;51.114;13.780;2023-11-21T17:44:08;3.60;9.00
573;DHT22;271;51.114;13.780;2023-11-21T17:46:56;3.60;6.60
573;DHT22;271;51.114;13.780;2023-11-21T17:49:44;3.50;5.30
573;DHT22;271;51.114;13.780;2023-11-21T17:52:33;3.50;3.20
573;DHT22;271;51.114;13.780;2023-11-21T17:55:21;3.50;4.60
573;DHT22;271;51.114;13.780;2023-11-21T17:58:08;3.50;2.30
573;DHT22;271;51.114;13.780;2023-11-21T18:00:59;3.50;5.50
573;DHT22;271;51.114;13.780;2023-11-21T18:03:46;3.40;1.20
573;DHT22;271;51.114;13.780;2023-11-21T18:06:35;3.50;3.30
573;DHT22;271;51.114;13.780;2023-11-21T18:09:25;3.50;2.20
573;DHT22;271;51.114;13.780;2023-11-21T18:12:12;3.40;1.90
573;DHT22;271;51.114;13.780;2023-11-21T18:15:00;3.40;1.70
573;DHT22;271;51.114;13.780;2023-11-21T18:17:48;3.50;3.50
573;DHT22;271;51.114;13.780;2023-11-21T18:20:36;3.40;3.60
573;DHT22;271;51.114;13.780;2023-11-21T18:23:24;3.40;3.90
573;DHT22;271;51.114;13.780;2023-11-21T18:26:17;3.50;5.50
573;DHT22;271;51.114;13.780;2023-11-21T18:29:05;3.50;2.50
573;DHT22;271;51.114;13.780;2023-11-21T18:31:54;3.60;2.20
573;DHT22;271;51.114;13.780;2023-11-21T18:34:42;3.40;1.00
573;DHT22;271;51.114;13.780;2023-11-21T18:37:32;3.40;1.00
573;DHT22;271;51.114;13.780;2023-11-21T18:40:20;3.50;1.00
573;DHT22;271;51.114;13.780;2023-11-21T18:43:09;3.40;2.00
573;DHT22;271;51.114;13.780;2023-11-21T18:45:56;3.40;2.30
573;DHT22;271;51.114;13.780;2023-11-21T18:48:44;3.30;1.00
573;DHT22;271;51.114;13.780;2023-11-21T18:51:34;3.30;1.20
573;DHT22;271;51.114;13.780;2023-11-21T18:54:22;3.30;1.70
573;DHT22;271;51.114;13.780;2023-11-21T18:57:11;3.30;1.00
573;DHT22;271;51.114;13.780;2023-11-21T19:00:00;3.20;1.00
573;DHT22;271;51.114;13.780;2023-11-21T19:02:47;3.30;1.00
573;DHT22;271;51.114;13.780;2023-11-21T19:05:35;3.10;1.00
573;DHT22;271;51.114;13.780;2023-11-21T19:08:23;3.10;1.00